Time;durP1;ratioP1;P1;durP2;ratioP2;P2;SDS_P1;SDS_P2;PMS_P1;PMS_P2;Temp;Humidity;BMP_temperature;BMP_pressure;BME280_temperature;BME280_humidity;BME280_pressure;Samples;Min_cycle;Max_cycle;Signal;HPM_P1;HPM_P2
2023/08/26 00:00:37;;;;;;;9.88;4.93;;;;;;;26.20;56.74;99695.09;5118751;28;20054;-69
2023/08/26 00:03:03;;;;;;;5.90;4.40;;;;;;;26.32;56.42;99695.66;5118992;28;20039;-70
2023/08/26 00:05:28;;;;;;;9.38;4.60;;;;;;;26.37;56.17;99693.81;5119532;28;20027;-69
2023/08/26 00:07:53;;;;;;;6.72;4.82;;;;;;;26.38;56.08;99694.63;5118882;28;20084;-70
2023/08/26 00:10:19;;;;;;;6.82;4.78;;;;;;;26.45;55.98;99691.66;5119285;28;20028;-69
2023/08/26 00:12:44;;;;;;;5.50;4.65;;;;;;;26.56;55.26;99687.91;5119885;28;20035;-69
2023/08/26 00:15:10;;;;;;;7.18;4.28;;;;;;;26.70;54.93;99687.09;5119461;28;20035;-69
2023/08/26 00:17:35;;;;;;;6.72;4.80;;;;;;;26.85;54.47;99691.75;5119629;28;20032;-69
2023/08/26 00:20:01;;;;;;;6.55;4.18;;;;;;;26.90;54.15;99688.22;5119373;28;20027;-70
2023/08/26 00:22:26;;;;;;;5.00;4.18;;;;;;;26.91;54.22;99689.84;5119849;28;20066;-70
2023/08/26 00:24:52;;;;;;;6.07;4.55;;;;;;;26.86;54.18;99681.69;5119477;28;20039;-70
2023/08/26 00:27:17;;;;;;;9.15;4.70;;;;;;;26.95;54.05;99680.06;5119730;28;20032;-70
2023/08/26 00:29:43;;;;;;;5.57;4.60;;;;;;;27.05;53.65;99682.84;5119762;28;20114;-69
2023/08/26 00:32:08;;;;;;;5.00;4.50;;;;;;;27.12;54.03;99682.59;5134880;27;20047;-70
2023/08/26 00:34:34;;;;;;;4.90;4.35;;;;;;;27.16;53.82;99680.94;5118629;28;20039;-69
2023/08/26 00:37:00;;;;;;;6.70;4.93;;;;;;;27.11;54.15;99680.94;5118303;28;20054;-69
2023/08/26 00:39:25;;;;;;;6.75;5.22;;;;;;;27.10;53.11;99692.91;5118119;28;20368;-69
2023/08/26 00:41:51;;;;;;;5.47;4.50;;;;;;;27.12;52.90;99679.88;5118105;28;20043;-69
2023/08/26 00:44:16;;;;;;;5.78;4.80;;;;;;;27.13;52.70;99687.75;5117789;28;20054;-69
2023/08/26 00:46:42;;;;;;;6.15;4.60;;;;;;;27.18;52.56;99687.75;5117538;28;20039;-69
2023/08/26 00:49:07;;;;;;;5.78;5.10;;;;;;;27.21;52.50;99695.34;5118097;28;20031;-69
2023/08/26 00:51:33;;;;;;;6.07;4.35;;;;;;;27.23;52.41;99686.94;5118239;28;20036;-69
2023/08/26 00:53:59;;;;;;;4.80;4.40;;;;;;;27.18;52.70;99689.66;5118006;28;20801;-69
2023/08/26 00:56:24;;;;;;;5.18;4.68;;;;;;;27.18;52.86;99684.22;5118459;28;20332;-69
2023/08/26 00:58:50;;;;;;;5.10;4.60;;;;;;;27.11;53.05;99687.19;5117876;28;20194;-68
2023/08/26 01:01:17;;;;;;;7.63;4.57;;;;;;;27.03;53.21;99687.72;5118226;28;20349;-68
2023/08/26 01:03:42;;;;;;;6.88;6.00;;;;;;;26.91;52.85;99677.06;5117826;28;20063;-69
2023/08/26 01:06:08;;;;;;;6.63;4.78;;;;;;;26.65;54.08;99687.09;5118062;28;20028;-69
2023/08/26 01:08:34;;;;;;;7.32;6.20;;;;;;;26.49;54.54;99687.34;5118157;28;20028;-70
2023/08/26 01:11:24;;;;;;;7.35;5.47;;;;;;;26.39;54.92;99679.97;5118626;28;20035;-69
2023/08/26 01:14:08;;;;;;;7.88;5.72;;;;;;;26.46;55.26;99677.00;5118463;28;20088;-70
2023/08/26 01:16:35;;;;;;;7.93;6.15;;;;;;;26.43;54.94;99672.94;5119062;28;20076;-69
2023/08/26 01:19:02;;;;;;;6.45;5.75;;;;;;;26.24;55.70;99664.44;5119144;28;20102;-69
2023/08/26 01:21:35;;;;;;;6.80;5.57;;;;;;;26.28;55.49;99670.97;5118800;28;20035;-70
2023/08/26 01:24:01;;;;;;;7.63;6.35;;;;;;;26.31;55.21;99666.91;5117653;28;20047;-69
2023/08/26 01:26:26;;;;;;;7.63;5.63;;;;;;;26.31;55.20;99669.59;5118272;28;20051;-69
2023/08/26 01:28:51;;;;;;;8.20;6.00;;;;;;;26.23;55.66;99670.13;5117532;28;20046;-69
2023/08/26 01:31:20;;;;;;;8.00;6.05;;;;;;;26.28;55.14;99665.53;5117940;28;20104;-69
2023/08/26 01:33:58;;;;;;;6.72;5.25;;;;;;;26.38;54.79;99665.59;5117638;28;20103;-69
2023/08/26 01:36:25;;;;;;;7.60;5.45;;;;;;;26.42;54.84;99656.91;5118203;28;20050;-68
2023/08/26 01:38:52;;;;;;;8.68;5.45;;;;;;;26.41;55.00;99661.53;5117392;28;20149;-70
2023/08/26 01:41:19;;;;;;;10.70;5.95;;;;;;;26.48;55.26;99669.41;5117528;28;20043;-69
2023/08/26 01:43:46;;;;;;;6.03;4.95;;;;;;;26.50;54.77;99664.53;5117387;28;20255;-69
2023/08/26 01:46:12;;;;;;;6.88;5.10;;;;;;;26.48;54.97;99670.22;5117121;28;20052;-70
2023/08/26 01:48:38;;;;;;;10.05;5.15;;;;;;;26.47;55.20;99668.59;5117412;28;20076;-68
2023/08/26 01:51:03;;;;;;;6.22;5.05;;;;;;;26.40;55.91;99670.75;5117921;28;20047;-70
2023/08/26 01:53:28;;;;;;;6.10;5.20;;;;;;;26.29;56.04;99675.31;5118195;28;20261;-69
2023/08/26 01:55:54;;;;;;;6.72;5.28;;;;;;;26.21;56.16;99670.41;5117925;28;20329;-69
2023/08/26 01:58:19;;;;;;;7.05;4.93;;;;;;;26.19;56.12;99672.56;5120248;28;20281;-70
2023/08/26 02:00:45;;;;;;;7.45;5.07;;;;;;;26.19;55.96;99666.31;5122099;28;20070;-70
2023/08/26 02:03:10;;;;;;;7.72;5.50;;;;;;;26.19;56.32;99669.84;5121794;28;20041;-68
2023/08/26 02:05:35;;;;;;;8.55;5.15;;;;;;;26.19;56.32;99669.84;5122642;28;20039;-70
2023/08/26 02:08:01;;;;;;;5.93;5.15;;;;;;;26.19;56.38;99669.03;5121605;28;20027;-69
2023/08/26 02:10:26;;;;;;;9.45;6.18;;;;;;;26.17;56.31;99665.75;5121686;28;20035;-69
2023/08/26 02:12:52;;;;;;;6.53;5.57;;;;;;;26.14;56.98;99674.44;5122316;28;20354;-70
2023/08/26 02:15:17;;;;;;;10.32;5.65;;;;;;;26.04;57.47;99672.50;5121769;28;20036;-68
2023/08/26 02:17:42;;;;;;;6.20;5.57;;;;;;;26.04;57.69;99678.75;5121428;28;20036;-69
2023/08/26 02:20:09;;;;;;;6.90;5.95;;;;;;;25.90;58.46;99674.84;5120619;28;20128;-68
2023/08/26 02:22:34;;;;;;;5.82;5.20;;;;;;;25.88;58.44;99668.88;5121191;28;20401;-69
2023/08/26 02:25:00;;;;;;;6.78;5.50;;;;;;;25.93;58.18;99666.19;5121676;28;20035;-69
2023/08/26 02:27:25;;;;;;;7.22;5.85;;;;;;;26.01;57.97;99667.59;5121869;28;20035;-69
2023/08/26 02:29:51;;;;;;;6.00;5.25;;;;;;;26.04;58.68;99667.06;5121363;28;20031;-69
2023/08/26 02:32:16;;;;;;;7.13;5.60;;;;;;;25.98;59.58;99666.22;5121734;28;20040;-70
2023/08/26 02:34:41;;;;;;;6.53;5.45;;;;;;;25.92;59.27;99664.56;5121708;28;20028;-70
2023/08/26 02:37:07;;;;;;;7.43;6.18;;;;;;;25.95;58.61;99663.22;5121339;28;20259;-70
2023/08/26 02:39:32;;;;;;;9.32;5.72;;;;;;;26.03;58.38;99658.13;5121917;28;20224;-70
2023/08/26 02:41:58;;;;;;;9.48;5.80;;;;;;;26.06;57.75;99654.06;5121498;28;20043;-69
2023/08/26 02:44:23;;;;;;;7.40;5.32;;;;;;;26.03;57.46;99665.44;5121649;28;20051;-70
2023/08/26 02:46:48;;;;;;;12.20;5.95;;;;;;;25.99;57.33;99664.31;5121663;28;20032;-69
2023/08/26 02:49:14;;;;;;;8.93;5.57;;;;;;;26.03;57.62;99668.16;5120931;28;20040;-70
2023/08/26 02:51:39;;;;;;;7.43;5.63;;;;;;;26.06;57.11;99663.00;5120627;28;20039;-70
2023/08/26 02:54:05;;;;;;;6.95;5.90;;;;;;;26.11;56.75;99667.66;5119934;28;20317;-68
2023/08/26 02:56:30;;;;;;;7.18;6.05;;;;;;;26.03;56.79;99666.25;5120797;28;20251;-70
2023/08/26 02:58:56;;;;;;;9.55;6.65;;;;;;;25.92;56.69;99669.16;5121089;28;20060;-69
2023/08/26 03:01:21;;;;;;;10.70;6.13;;;;;;;25.80;57.50;99669.38;5121023;28;20040;-69
2023/08/26 03:03:47;;;;;;;9.90;5.63;;;;;;;25.66;57.87;99670.94;5121052;28;20035;-68
2023/08/26 03:06:12;;;;;;;8.65;5.57;;;;;;;25.54;57.95;99667.56;5121164;28;20040;-70
2023/08/26 03:08:37;;;;;;;7.47;5.40;;;;;;;25.42;58.48;99671.28;5120455;28;20035;-70
2023/08/26 03:11:05;;;;;;;6.93;5.78;;;;;;;25.49;58.33;99670.25;5120478;28;20040;-70
2023/08/26 03:13:31;;;;;;;7.20;5.38;;;;;;;25.45;58.58;99661.81;5120316;28;20050;-69
2023/08/26 03:15:57;;;;;;;6.63;5.93;;;;;;;25.48;58.37;99668.63;5119776;28;20043;-69
2023/08/26 03:18:23;;;;;;;6.60;5.43;;;;;;;25.38;58.72;99667.47;5119651;28;20039;-68
2023/08/26 03:20:49;;;;;;;8.35;5.85;;;;;;;25.44;58.50;99676.44;5119198;28;20097;-68
2023/08/26 03:23:15;;;;;;;6.78;5.68;;;;;;;25.37;58.77;99689.41;5119056;28;20043;-70
2023/08/26 03:25:41;;;;;;;7.10;5.90;;;;;;;25.32;59.33;99679.34;5119584;28;20039;-68
2023/08/26 03:28:10;;;;;;;9.77;5.95;;;;;;;25.27;59.28;99678.50;5119583;28;20089;-68
2023/08/26 03:30:36;;;;;;;11.40;5.93;;;;;;;25.29;58.66;99685.28;5119780;28;20047;-70
2023/08/26 03:33:02;;;;;;;9.30;5.45;;;;;;;25.22;58.84;99684.69;5119710;28;20020;-70
2023/08/26 03:35:28;;;;;;;9.70;5.95;;;;;;;25.18;59.47;99688.19;5119364;28;20031;-69
2023/08/26 03:37:53;;;;;;;10.60;6.13;;;;;;;25.17;59.81;99689.25;5119582;28;20034;-69
2023/08/26 03:40:22;;;;;;;6.88;5.72;;;;;;;25.20;59.97;99694.97;5119858;28;20038;-69
2023/08/26 03:42:49;;;;;;;10.00;6.53;;;;;;;25.28;60.37;99694.50;5119550;28;20350;-70
2023/08/26 03:45:16;;;;;;;10.40;6.25;;;;;;;25.27;60.70;99698.28;5119039;28;20047;-69
2023/08/26 03:47:41;;;;;;;10.20;5.82;;;;;;;25.11;61.23;99700.06;5119512;28;20032;-69
2023/08/26 03:50:07;;;;;;;7.85;5.95;;;;;;;24.99;62.19;99699.41;5119286;28;20028;-70
2023/08/26 03:52:33;;;;;;;8.88;5.93;;;;;;;25.06;64.28;99697.31;5120344;28;20051;-70
2023/08/26 03:54:58;;;;;;;12.30;6.40;;;;;;;25.16;63.24;99710.13;5119622;28;20035;-70
2023/08/26 03:57:23;;;;;;;8.68;6.28;;;;;;;25.18;63.05;99701.75;5119728;28;20065;-69
2023/08/26 03:59:49;;;;;;;10.13;6.60;;;;;;;25.11;63.54;99704.66;5119542;28;20121;-70
2023/08/26 04:02:14;;;;;;;11.18;7.13;;;;;;;25.13;65.56;99703.31;5119046;28;20036;-68
2023/08/26 04:04:40;;;;;;;12.07;6.72;;;;;;;25.01;68.37;99701.88;5119686;28;20038;-69
2023/08/26 04:07:05;;;;;;;11.23;7.57;;;;;;;25.10;71.78;99703.84;5119800;28;20268;-69
2023/08/26 04:09:31;;;;;;;14.07;10.32;;;;;;;25.07;67.70;99704.34;5135202;27;20131;-68
2023/08/26 04:11:56;;;;;;;12.07;8.00;;;;;;;25.08;69.29;99710.59;5119086;28;20035;-69
2023/08/26 04:14:21;;;;;;;12.18;8.02;;;;;;;25.20;70.82;99715.84;5119641;28;20079;-69
2023/08/26 04:16:47;;;;;;;16.73;7.63;;;;;;;25.28;69.61;99713.47;5119537;28;20031;-69
2023/08/26 04:19:14;;;;;;;10.40;7.68;;;;;;;25.37;67.35;99711.09;5119131;28;20031;-69
2023/08/26 04:21:39;;;;;;;14.20;8.52;;;;;;;25.41;67.74;99707.59;5118906;28;20039;-69
2023/08/26 04:24:05;;;;;;;10.02;7.30;;;;;;;25.44;67.50;99711.69;5119012;28;20054;-70
2023/08/26 04:26:30;;;;;;;15.10;8.00;;;;;;;25.42;67.61;99711.97;5119520;28;20069;-70
2023/08/26 04:28:56;;;;;;;13.25;7.57;;;;;;;25.38;66.87;99718.16;5119105;28;20043;-69
2023/08/26 04:31:22;;;;;;;12.23;7.07;;;;;;;25.37;68.82;99716.53;5118853;28;20084;-69
2023/08/26 04:33:48;;;;;;;10.70;6.45;;;;;;;25.31;68.73;99704.81;5118286;28;20252;-70
2023/08/26 04:36:13;;;;;;;11.07;7.10;;;;;;;25.42;70.69;99716.56;5118997;28;20104;-70
2023/08/26 04:38:40;;;;;;;9.70;7.40;;;;;;;25.40;70.99;99714.09;5119156;28;20031;-70
2023/08/26 04:41:06;;;;;;;10.85;7.07;;;;;;;25.46;69.47;99726.63;5119152;28;20267;-69
2023/08/26 04:43:31;;;;;;;14.75;7.28;;;;;;;25.55;69.46;99728.84;5118528;28;20040;-69
2023/08/26 04:45:58;;;;;;;12.32;7.38;;;;;;;25.61;68.33;99734.03;5118094;28;20264;-69
2023/08/26 04:48:23;;;;;;;9.60;6.63;;;;;;;25.65;66.55;99739.75;5118586;28;20127;-70
2023/08/26 04:50:49;;;;;;;12.50;7.30;;;;;;;25.53;65.72;99733.72;5118587;28;20065;-70
2023/08/26 04:53:14;;;;;;;10.95;7.13;;;;;;;25.60;66.09;99732.41;5117990;28;20032;-70
2023/08/26 04:55:40;;;;;;;10.82;7.78;;;;;;;25.68;66.85;99737.38;5119332;28;20046;-70
2023/08/26 04:58:08;;;;;;;9.40;6.25;;;;;;;25.75;65.34;99734.44;5118709;28;20058;-70
2023/08/26 05:00:34;;;;;;;8.27;6.82;;;;;;;25.80;63.83;99737.19;5118448;28;20024;-70
2023/08/26 05:02:59;;;;;;;10.52;7.03;;;;;;;25.93;65.00;99749.47;5118093;28;20054;-70
2023/08/26 05:05:26;;;;;;;9.77;6.82;;;;;;;26.05;63.67;99745.50;5119005;28;20043;-70
2023/08/26 05:07:51;;;;;;;11.48;7.75;;;;;;;26.22;65.32;99739.06;5119167;28;20031;-70
2023/08/26 05:10:16;;;;;;;12.18;7.60;;;;;;;26.41;63.71;99737.53;5118609;28;20034;-70
2023/08/26 05:12:42;;;;;;;11.27;7.75;;;;;;;26.53;63.27;99740.84;5118870;28;20059;-70
2023/08/26 05:15:08;;;;;;;10.50;7.25;;;;;;;26.62;63.43;99733.00;5117967;28;20035;-70
2023/08/26 05:17:33;;;;;;;10.55;7.03;;;;;;;26.70;62.14;99730.56;5118499;28;20118;-70
2023/08/26 05:19:58;;;;;;;11.82;8.07;;;;;;;26.84;61.85;99725.44;5118065;28;20070;-70
2023/08/26 05:22:24;;;;;;;13.13;7.78;;;;;;;27.01;61.79;99722.50;5118172;28;20043;-70
2023/08/26 05:24:49;;;;;;;10.88;7.43;;;;;;;27.09;58.24;99724.72;5118742;28;20080;-70
2023/08/26 05:27:15;;;;;;;11.75;7.53;;;;;;;27.24;57.79;99726.63;5117959;28;20040;-70
2023/08/26 05:29:41;;;;;;;12.68;7.53;;;;;;;27.40;57.12;99728.25;5117746;28;20054;-70
2023/08/26 05:32:06;;;;;;;10.48;7.03;;;;;;;27.57;57.54;99733.38;5117951;28;20062;-67
2023/08/26 05:34:32;;;;;;;13.88;8.07;;;;;;;27.66;56.89;99737.22;5121584;28;20039;-68
2023/08/26 05:36:58;;;;;;;11.05;8.13;;;;;;;27.89;55.38;99730.38;5121895;28;20035;-68
2023/08/26 05:39:23;;;;;;;12.38;7.38;;;;;;;28.05;54.45;99731.13;5121512;28;20336;-68
2023/08/26 05:41:49;;;;;;;12.70;7.50;;;;;;;28.27;52.34;99737.91;5122185;28;20314;-68
2023/08/26 05:44:15;;;;;;;12.32;7.45;;;;;;;28.40;50.72;99732.97;5122205;28;20047;-68
2023/08/26 05:46:40;;;;;;;12.57;6.50;;;;;;;28.49;50.77;99739.47;5122907;28;20042;-69
2023/08/26 05:49:05;;;;;;;13.27;6.78;;;;;;;28.50;50.83;99743.81;5122539;28;20359;-69
2023/08/26 05:51:31;;;;;;;9.73;6.95;;;;;;;28.55;50.85;99738.34;5122210;28;20070;-68
2023/08/26 05:53:56;;;;;;;7.75;5.95;;;;;;;28.47;51.05;99738.94;5122059;28;20390;-69
2023/08/26 05:56:22;;;;;;;12.05;6.55;;;;;;;28.68;50.27;99736.91;5121913;28;20072;-68
2023/08/26 05:58:47;;;;;;;7.97;7.03;;;;;;;28.76;49.96;99736.31;5121560;28;20106;-68
2023/08/26 06:01:13;;;;;;;10.45;7.30;;;;;;;28.79;50.27;99733.03;5121722;28;20036;-68
2023/08/26 06:03:38;;;;;;;8.15;6.72;;;;;;;28.88;51.69;99732.16;5121271;28;20377;-69
2023/08/26 06:06:05;;;;;;;8.27;6.85;;;;;;;28.86;49.49;99737.09;5121961;28;20039;-68
2023/08/26 06:08:30;;;;;;;10.02;7.10;;;;;;;29.13;52.19;99736.66;5122077;28;20058;-69
2023/08/26 06:10:56;;;;;;;9.60;7.68;;;;;;;29.31;51.34;99728.88;5121881;28;20266;-69
2023/08/26 06:13:22;;;;;;;12.10;8.13;;;;;;;29.33;49.82;99738.41;5121734;28;20039;-68
2023/08/26 06:15:54;;;;;;;10.75;7.65;;;;;;;29.36;49.65;99737.03;5121606;28;20043;-68
2023/08/26 06:18:20;;;;;;;10.70;8.30;;;;;;;29.50;50.48;99732.56;5121901;28;20041;-69
2023/08/26 06:20:46;;;;;;;8.18;7.22;;;;;;;29.69;50.57;99740.84;5121368;28;20371;-69
2023/08/26 06:23:12;;;;;;;9.98;8.05;;;;;;;29.73;49.90;99737.25;5121044;28;20036;-68
2023/08/26 06:25:37;;;;;;;9.88;7.78;;;;;;;29.72;50.67;99738.34;5121124;28;20043;-69
2023/08/26 06:28:03;;;;;;;10.27;8.73;;;;;;;29.74;50.12;99738.88;5121734;28;20048;-70
2023/08/26 06:30:28;;;;;;;8.98;8.07;;;;;;;29.93;50.30;99743.59;5121973;28;20043;-69
2023/08/26 06:32:54;;;;;;;9.18;8.25;;;;;;;29.94;49.40;99745.22;5120780;28;20147;-70
2023/08/26 06:35:19;;;;;;;9.55;8.63;;;;;;;29.94;48.97;99746.03;5121620;28;20058;-69
2023/08/26 06:37:44;;;;;;;11.85;10.80;;;;;;;29.90;49.39;99747.72;5121994;28;20032;-70
2023/08/26 06:40:10;;;;;;;10.38;9.25;;;;;;;29.89;49.25;99748.81;5121847;28;20050;-69
2023/08/26 06:42:36;;;;;;;11.80;10.02;;;;;;;30.09;49.04;99750.53;5120860;28;20036;-69
2023/08/26 06:45:02;;;;;;;9.45;8.38;;;;;;;30.12;49.07;99758.97;5118945;28;20043;-70
2023/08/26 06:47:27;;;;;;;15.73;12.63;;;;;;;30.43;47.50;99756.69;5121197;28;20035;-70
2023/08/26 06:49:53;;;;;;;10.65;8.98;;;;;;;30.67;47.18;99755.88;5120727;28;20032;-69
2023/08/26 06:52:18;;;;;;;9.27;7.95;;;;;;;30.69;46.32;99753.66;5121121;28;20039;-69
2023/08/26 06:54:43;;;;;;;10.32;9.32;;;;;;;30.39;46.65;99760.31;5121267;28;20047;-69
2023/08/26 06:57:09;;;;;;;10.85;9.27;;;;;;;30.42;46.05;99760.53;5121089;28;20310;-69
2023/08/26 06:59:34;;;;;;;10.20;7.43;;;;;;;30.67;44.05;99758.59;5121170;28;20028;-69
2023/08/26 07:02:00;;;;;;;11.65;7.85;;;;;;;30.90;45.13;99760.47;5120997;28;20042;-70
2023/08/26 07:04:25;;;;;;;11.30;8.13;;;;;;;31.08;46.20;99751.44;5120535;28;20342;-69
2023/08/26 07:06:51;;;;;;;10.05;8.48;;;;;;;31.20;44.55;99747.47;5120789;28;20076;-69
2023/08/26 07:09:16;;;;;;;9.38;7.50;;;;;;;31.30;44.13;99756.34;5120955;28;20043;-70
2023/08/26 07:11:42;;;;;;;9.45;7.63;;;;;;;31.34;44.11;99753.81;5121439;28;20204;-70
2023/08/26 07:14:07;;;;;;;10.05;7.85;;;;;;;31.40;43.89;99749.88;5120200;28;20043;-71
2023/08/26 07:16:32;;;;;;;12.55;8.40;;;;;;;31.44;42.66;99746.25;5120344;28;20044;-70
2023/08/26 07:18:58;;;;;;;11.63;9.23;;;;;;;31.46;42.75;99756.09;5120591;28;20035;-70
2023/08/26 07:21:23;;;;;;;16.55;7.90;;;;;;;31.66;43.34;99748.34;5120476;28;20080;-71
2023/08/26 07:23:49;;;;;;;11.70;8.13;;;;;;;31.67;41.27;99739.00;5120039;28;20036;-70
2023/08/26 07:26:14;;;;;;;10.98;8.25;;;;;;;31.62;43.58;99741.84;5120124;28;20357;-69
2023/08/26 07:28:40;;;;;;;12.18;8.45;;;;;;;31.80;42.90;99745.66;5119962;28;20468;-69
2023/08/26 07:31:06;;;;;;;8.85;7.93;;;;;;;31.88;42.22;99744.13;5120479;28;20035;-70
2023/08/26 07:33:32;;;;;;;11.60;8.05;;;;;;;31.76;40.67;99739.16;5120914;28;20061;-69
2023/08/26 07:36:05;;;;;;;11.43;9.05;;;;;;;31.90;41.21;99728.22;5120128;28;20349;-70
2023/08/26 07:38:31;;;;;;;12.35;7.40;;;;;;;32.13;41.25;99732.69;5120278;28;20047;-69
2023/08/26 07:40:56;;;;;;;10.05;7.78;;;;;;;32.26;39.22;99731.09;5120420;28;20049;-70
2023/08/26 07:43:22;;;;;;;10.30;8.85;;;;;;;32.32;40.60;99733.44;5120746;28;20252;-69
2023/08/26 07:45:47;;;;;;;12.20;9.27;;;;;;;32.30;40.57;99732.13;5119530;28;20308;-69
2023/08/26 07:48:13;;;;;;;19.92;17.40;;;;;;;32.50;41.04;99731.69;5119108;28;20039;-69
2023/08/26 07:50:38;;;;;;;12.27;9.77;;;;;;;32.46;40.56;99725.19;5119591;28;20081;-69
2023/08/26 07:53:05;;;;;;;12.68;8.35;;;;;;;32.62;39.38;99729.22;5120090;28;20047;-69
2023/08/26 07:55:31;;;;;;;13.50;8.32;;;;;;;32.68;38.41;99738.13;5120200;28;20340;-70
2023/08/26 07:57:56;;;;;;;11.10;8.15;;;;;;;32.50;39.18;99731.69;5120479;28;20252;-70
2023/08/26 08:00:22;;;;;;;17.45;12.02;;;;;;;32.65;39.03;99712.16;5120436;28;20039;-69
2023/08/26 08:02:47;;;;;;;13.13;9.20;;;;;;;32.78;38.83;99718.75;5120170;28;20039;-70
2023/08/26 08:05:13;;;;;;;11.30;9.07;;;;;;;32.65;39.25;99720.38;5120043;28;20080;-69
2023/08/26 08:07:38;;;;;;;9.80;7.38;;;;;;;32.85;39.54;99719.13;5119720;28;20274;-70
2023/08/26 08:10:04;;;;;;;8.50;7.03;;;;;;;32.90;37.38;99708.03;5119159;28;20093;-69
2023/08/26 08:12:29;;;;;;;9.63;7.80;;;;;;;32.80;37.76;99712.94;5119442;28;20035;-69
2023/08/26 08:14:55;;;;;;;7.82;6.75;;;;;;;33.03;37.90;99711.84;5119568;28;20023;-69
2023/08/26 08:17:20;;;;;;;7.40;6.60;;;;;;;33.06;35.93;99708.47;5119026;28;20032;-68
2023/08/26 08:19:46;;;;;;;7.78;5.97;;;;;;;33.15;36.96;99709.34;5118827;28;20301;-68
2023/08/26 08:22:13;;;;;;;7.60;6.50;;;;;;;33.17;37.28;99706.28;5118246;28;20477;-69
2023/08/26 08:24:38;;;;;;;8.40;6.80;;;;;;;33.31;35.90;99701.59;5117927;28;20031;-69
2023/08/26 08:27:04;;;;;;;7.47;6.78;;;;;;;33.37;36.88;99707.78;5118675;28;20035;-69
2023/08/26 08:29:29;;;;;;;9.15;6.97;;;;;;;33.35;37.03;99696.28;5119137;28;20058;-69
2023/08/26 08:31:55;;;;;;;11.98;7.90;;;;;;;33.40;35.44;99698.91;5119698;28;20046;-69
2023/08/26 08:34:21;;;;;;;8.30;6.55;;;;;;;33.38;34.54;99698.41;5120028;28;20084;-70
2023/08/26 08:36:46;;;;;;;7.15;6.45;;;;;;;33.35;34.79;99696.28;5119603;28;20044;-69
2023/08/26 08:39:11;;;;;;;7.80;6.82;;;;;;;33.42;34.63;99704.91;5119093;28;20503;-68
2023/08/26 08:41:40;;;;;;;8.27;6.30;;;;;;;33.36;34.59;99700.66;5119188;28;20372;-69
2023/08/26 08:44:14;;;;;;;8.05;6.78;;;;;;;33.37;35.10;99694.84;5119295;28;20057;-69
2023/08/26 08:46:40;;;;;;;8.32;6.80;;;;;;;33.31;33.99;99691.44;5118873;28;20035;-70
2023/08/26 08:49:07;;;;;;;8.82;7.05;;;;;;;33.28;34.13;99685.69;5118396;28;20309;-70
2023/08/26 08:51:34;;;;;;;9.00;7.15;;;;;;;33.35;35.13;99686.13;5118597;28;20054;-70
2023/08/26 08:54:02;;;;;;;7.72;6.90;;;;;;;33.31;35.34;99690.63;5118755;28;20127;-68
2023/08/26 08:56:30;;;;;;;8.35;6.60;;;;;;;33.38;34.76;99688.25;5119031;28;20036;-68
2023/08/26 08:58:57;;;;;;;9.75;6.93;;;;;;;32.71;35.84;99682.69;5118618;28;20060;-68
2023/08/26 09:01:24;;;;;;;8.70;7.47;;;;;;;32.74;35.95;99679.31;5118425;28;20081;-69
2023/08/26 09:03:49;;;;;;;8.60;6.70;;;;;;;32.67;36.10;99671.53;5118726;28;20036;-68
2023/08/26 09:06:17;;;;;;;8.73;7.10;;;;;;;32.88;35.96;99669.16;5118898;28;20214;-69
2023/08/26 09:08:44;;;;;;;10.27;6.97;;;;;;;33.01;35.81;99670.19;5117413;28;20107;-69
2023/08/26 09:11:09;;;;;;;8.15;7.07;;;;;;;33.15;36.19;99668.19;5118267;28;20042;-68
2023/08/26 09:13:35;;;;;;;7.63;6.70;;;;;;;33.16;36.16;99666.25;5118893;28;20080;-69
2023/08/26 09:16:01;;;;;;;7.15;6.45;;;;;;;32.84;35.57;99664.59;5118647;28;20032;-69
2023/08/26 09:18:28;;;;;;;8.27;7.47;;;;;;;32.58;36.31;99665.16;5119154;28;20097;-70
2023/08/26 09:20:53;;;;;;;7.85;7.10;;;;;;;32.41;36.46;99653.25;5118253;28;20032;-69
2023/08/26 09:23:19;;;;;;;8.00;6.97;;;;;;;32.55;35.49;99654.81;5117701;28;20028;-68
2023/08/26 09:25:55;;;;;;;8.35;7.25;;;;;;;32.22;36.05;99648.66;5118257;28;20467;-67
2023/08/26 09:28:23;;;;;;;7.85;7.05;;;;;;;32.25;35.81;99653.59;5117969;28;20249;-69
2023/08/26 09:31:03;;;;;;;9.52;6.90;;;;;;;32.12;37.05;99656.28;5118483;28;20304;-68
2023/08/26 09:33:29;;;;;;;8.23;7.35;;;;;;;32.10;37.10;99648.38;5118068;28;20035;-68
2023/08/26 09:35:54;;;;;;;10.07;7.47;;;;;;;32.12;36.01;99654.34;5118921;28;20031;-68
2023/08/26 09:38:21;;;;;;;8.40;7.60;;;;;;;31.97;37.57;99644.53;5118439;28;20031;-68
2023/08/26 09:40:46;;;;;;;9.02;7.43;;;;;;;32.02;37.53;99647.16;5118627;28;20453;-69
2023/08/26 09:43:12;;;;;;;8.60;7.80;;;;;;;32.02;38.25;99649.91;5118141;28;20035;-69
2023/08/26 09:45:38;;;;;;;8.82;7.90;;;;;;;32.00;39.24;99651.34;5118294;28;20090;-68
2023/08/26 09:48:05;;;;;;;10.38;7.78;;;;;;;31.94;37.91;99647.88;5118179;28;20031;-68
2023/08/26 09:50:31;;;;;;;8.70;7.50;;;;;;;32.00;38.23;99640.38;5118538;28;20042;-69
2023/08/26 09:52:58;;;;;;;7.43;6.65;;;;;;;32.02;37.27;99636.22;5118187;28;20027;-69
2023/08/26 09:55:23;;;;;;;10.95;7.80;;;;;;;32.05;38.04;99643.81;5118832;28;20027;-68
2023/08/26 09:57:49;;;;;;;8.70;7.65;;;;;;;32.14;38.08;99632.13;5118947;28;20055;-68
2023/08/26 10:00:19;;;;;;;9.35;7.22;;;;;;;32.33;39.12;99638.34;5118229;28;20303;-69
2023/08/26 10:02:49;;;;;;;7.97;7.13;;;;;;;32.20;36.88;99631.72;5118718;28;20114;-68
2023/08/26 10:05:20;;;;;;;8.32;6.55;;;;;;;32.15;37.16;99628.28;5118337;28;20465;-68
2023/08/26 10:07:50;;;;;;;9.98;6.88;;;;;;;32.27;37.25;99628.63;5117743;28;20341;-68
2023/08/26 10:10:54;;;;;;;8.82;7.22;;;;;;;32.16;36.67;99632.63;5118862;28;20094;-69
2023/08/26 10:13:23;;;;;;;7.18;6.43;;;;;;;32.27;36.29;99626.69;5115327;28;20245;-70
2023/08/26 10:15:52;;;;;;;7.75;6.00;;;;;;;32.27;37.37;99614.91;5118173;28;20063;-70
2023/08/26 10:18:43;;;;;;;8.48;6.50;;;;;;;32.30;37.20;99619.78;5118425;28;20233;-70
2023/08/26 10:21:09;;;;;;;9.63;7.32;;;;;;;32.38;36.47;99619.84;5121482;28;20055;-70
2023/08/26 10:23:36;;;;;;;7.18;6.47;;;;;;;32.42;36.34;99611.03;5121589;28;20047;-69
2023/08/26 10:26:01;;;;;;;8.32;7.40;;;;;;;32.45;37.00;99608.47;5121885;28;20061;-69
2023/08/26 10:28:29;;;;;;;7.15;6.53;;;;;;;32.38;36.56;99603.41;5121457;28;20047;-69
2023/08/26 10:30:57;;;;;;;8.15;6.85;;;;;;;32.47;35.77;99600.75;5122036;28;20286;-69
2023/08/26 10:33:23;;;;;;;8.15;7.35;;;;;;;32.48;36.81;99607.03;5121754;28;20046;-69
2023/08/26 10:36:14;;;;;;;7.50;6.80;;;;;;;32.44;36.39;99608.78;5121704;28;20055;-68
2023/08/26 10:38:39;;;;;;;8.85;7.18;;;;;;;32.44;37.31;99608.78;5121704;28;20070;-70
2023/08/26 10:41:11;;;;;;;7.05;6.28;;;;;;;32.43;36.71;99601.69;5121775;28;20361;-69
2023/08/26 10:43:49;;;;;;;7.22;6.57;;;;;;;32.29;37.09;99608.00;5121370;28;20063;-70
2023/08/26 10:46:14;;;;;;;9.20;7.13;;;;;;;32.31;37.89;99599.47;5121385;28;20043;-70
2023/08/26 10:48:56;;;;;;;7.10;6.40;;;;;;;32.30;36.99;99600.59;5120834;28;20039;-69
2023/08/26 10:51:22;;;;;;;7.93;6.78;;;;;;;32.28;37.48;99597.38;5120359;28;20035;-68
2023/08/26 10:53:51;;;;;;;8.55;6.80;;;;;;;32.38;37.35;99586.97;5119915;28;20063;-70
2023/08/26 10:56:18;;;;;;;9.13;6.70;;;;;;;32.43;37.88;99585.22;5121101;28;20043;-70
2023/08/26 10:58:48;;;;;;;8.45;6.40;;;;;;;32.50;38.15;99585.63;5120849;28;20035;-70
2023/08/26 11:01:15;;;;;;;7.05;6.35;;;;;;;32.44;37.30;99576.69;5120834;28;20055;-70
2023/08/26 11:03:43;;;;;;;7.03;6.18;;;;;;;32.51;37.30;99573.53;5121200;28;20035;-70
2023/08/26 11:06:10;;;;;;;8.07;6.13;;;;;;;32.61;38.19;99567.78;5121363;28;20044;-69
2023/08/26 11:08:39;;;;;;;6.68;5.85;;;;;;;32.66;37.26;99578.63;5121062;28;20040;-68
2023/08/26 11:11:10;;;;;;;6.95;6.00;;;;;;;32.69;37.53;99569.78;5120730;28;20042;-70
2023/08/26 11:13:35;;;;;;;7.80;6.30;;;;;;;32.75;36.53;99563.06;5121249;28;20050;-69
2023/08/26 11:16:01;;;;;;;7.30;5.50;;;;;;;32.65;35.98;99566.03;5120915;28;20035;-70
2023/08/26 11:18:26;;;;;;;6.78;6.00;;;;;;;32.70;36.13;99569.47;5120930;28;20031;-70
2023/08/26 11:20:52;;;;;;;7.32;5.65;;;;;;;32.74;37.55;99564.16;5119875;28;20047;-68
2023/08/26 11:23:18;;;;;;;8.10;5.82;;;;;;;32.85;35.87;99567.50;5119301;28;20388;-70
2023/08/26 11:25:43;;;;;;;6.50;5.70;;;;;;;32.85;35.00;99559.25;5119785;28;20028;-67
2023/08/26 11:28:14;;;;;;;7.45;6.75;;;;;;;32.86;35.64;99558.16;5119363;28;20317;-68